KUCY/UCY METAR and TAF weather

Enter ICAO airport designator
Station Type Date Time Source
KUCY METAR 2018/12/11 22:15 UTC NOAA

KUCY 112215Z AUTO 19009KT 10SM CLR 07/M01 A3020 RMK A01


Station Type Date Time Source
KUCY Decoded METAR 2018/12/11 22:15 UTC NOAA

Station name not available
Dec 11, 2018 - 05:15 PM EST / 2018.12.11 2215 UTC
Wind: from the S (190 degrees) at 10 MPH (9 KT):0
Visibility: 10 mile(s):0
Sky conditions: clear
Temperature: 44 F (7 C)
Dew Point: 30 F (-1 C)
Relative Humidity: 56%
Pressure (altimeter): 30.2 in. Hg (1022 hPa)
ob: KUCY 112215Z AUTO 19009KT 10SM CLR 07/M01 A3020 RMK A01
cycle: 22

Station Type Date Time Source
KUCY TAF UTC NOAA

Error!


Example: see airport list